sensor_id;sensor_type;location;lat;lon;timestamp;pressure;altitude;pressure_sealevel;temperature;humidity
63916;BME280;50094;51.356;-0.196;2022-07-29T00:00:42;101079.29;;;30.04;41.64
63916;BME280;50094;51.356;-0.196;2022-07-29T00:03:09;101076.01;;;30.11;41.84
63916;BME280;50094;51.356;-0.196;2022-07-29T00:05:38;101074.40;;;30.20;41.95
63916;BME280;50094;51.356;-0.196;2022-07-29T00:08:05;101075.31;;;30.20;42.01
63916;BME280;50094;51.356;-0.196;2022-07-29T00:10:32;101072.11;;;30.48;41.86
63916;BME280;50094;51.356;-0.196;2022-07-29T00:13:00;101070.20;;;30.54;41.89
63916;BME280;50094;51.356;-0.196;2022-07-29T00:15:28;101066.71;;;30.52;41.78
63916;BME280;50094;51.356;-0.196;2022-07-29T00:17:55;101067.27;;;30.05;41.83
63916;BME280;50094;51.356;-0.196;2022-07-29T00:20:23;101066.65;;;30.41;41.93
63916;BME280;50094;51.356;-0.196;2022-07-29T00:22:50;101066.08;;;30.18;42.06
63916;BME280;50094;51.356;-0.196;2022-07-29T00:25:18;101061.63;;;30.14;41.99
63916;BME280;50094;51.356;-0.196;2022-07-29T00:27:45;101059.91;;;30.13;41.95
63916;BME280;50094;51.356;-0.196;2022-07-29T00:30:13;101053.74;;;30.15;41.90
63916;BME280;50094;51.356;-0.196;2022-07-29T00:32:41;101055.46;;;30.48;42.12
63916;BME280;50094;51.356;-0.196;2022-07-29T00:35:09;101055.53;;;30.26;42.08
63916;BME280;50094;51.356;-0.196;2022-07-29T00:37:36;101057.61;;;30.51;41.49
63916;BME280;50094;51.356;-0.196;2022-07-29T00:40:04;101059.66;;;30.28;41.82
63916;BME280;50094;51.356;-0.196;2022-07-29T00:42:41;101058.39;;;30.29;41.65
63916;BME280;50094;51.356;-0.196;2022-07-29T00:45:09;101056.85;;;30.33;41.81
63916;BME280;50094;51.356;-0.196;2022-07-29T00:47:37;101053.55;;;30.56;41.91
63916;BME280;50094;51.356;-0.196;2022-07-29T00:50:06;101049.17;;;30.34;41.87
63916;BME280;50094;51.356;-0.196;2022-07-29T00:52:36;101047.44;;;30.42;41.77
63916;BME280;50094;51.356;-0.196;2022-07-29T00:55:06;101050.85;;;30.39;41.69
63916;BME280;50094;51.356;-0.196;2022-07-29T00:57:34;101052.37;;;30.43;41.57
63916;BME280;50094;51.356;-0.196;2022-07-29T01:00:03;101051.39;;;30.42;41.32
63916;BME280;50094;51.356;-0.196;2022-07-29T01:02:31;101055.01;;;30.44;41.07
63916;BME280;50094;51.356;-0.196;2022-07-29T01:04:59;101055.30;;;30.67;40.80
63916;BME280;50094;51.356;-0.196;2022-07-29T01:07:27;101049.14;;;30.50;41.05
63916;BME280;50094;51.356;-0.196;2022-07-29T01:09:57;101047.09;;;30.48;41.14
63916;BME280;50094;51.356;-0.196;2022-07-29T01:12:26;101044.58;;;30.55;40.92
63916;BME280;50094;51.356;-0.196;2022-07-29T01:14:55;101042.80;;;30.58;40.94
63916;BME280;50094;51.356;-0.196;2022-07-29T01:17:26;101041.14;;;30.60;40.85
63916;BME280;50094;51.356;-0.196;2022-07-29T01:20:02;101044.38;;;30.59;40.70
63916;BME280;50094;51.356;-0.196;2022-07-29T01:22:42;101043.71;;;30.59;40.44
63916;BME280;50094;51.356;-0.196;2022-07-29T01:25:28;101043.15;;;30.59;40.56
63916;BME280;50094;51.356;-0.196;2022-07-29T01:28:13;101042.25;;;30.85;40.49
63916;BME280;50094;51.356;-0.196;2022-07-29T01:30:45;101044.98;;;30.66;40.39
63916;BME280;50094;51.356;-0.196;2022-07-29T01:33:15;101046.36;;;30.69;40.41
63916;BME280;50094;51.356;-0.196;2022-07-29T01:35:45;101047.73;;;30.73;40.09
63916;BME280;50094;51.356;-0.196;2022-07-29T01:38:16;101045.47;;;30.75;39.91
63916;BME280;50094;51.356;-0.196;2022-07-29T01:40:49;101045.43;;;30.83;39.84
63916;BME280;50094;51.356;-0.196;2022-07-29T01:43:21;101045.53;;;30.83;39.84
63916;BME280;50094;51.356;-0.196;2022-07-29T01:46:03;101050.63;;;30.85;39.80
63916;BME280;50094;51.356;-0.196;2022-07-29T01:48:36;101052.12;;;30.92;39.33
63916;BME280;50094;51.356;-0.196;2022-07-29T01:51:09;101046.72;;;30.89;39.10
63916;BME280;50094;51.356;-0.196;2022-07-29T01:53:46;101043.71;;;30.82;39.29
63916;BME280;50094;51.356;-0.196;2022-07-29T01:56:17;101037.16;;;30.85;39.15
63916;BME280;50094;51.356;-0.196;2022-07-29T01:58:45;101038.20;;;30.59;39.07
63916;BME280;50094;51.356;-0.196;2022-07-29T02:01:16;101043.40;;;30.94;38.93
63916;BME280;50094;51.356;-0.196;2022-07-29T02:03:46;101044.78;;;30.99;38.81
63916;BME280;50094;51.356;-0.196;2022-07-29T02:06:17;101042.12;;;30.71;38.82
63916;BME280;50094;51.356;-0.196;2022-07-29T02:08:46;101041.36;;;31.01;38.52
63916;BME280;50094;51.356;-0.196;2022-07-29T02:11:15;101040.90;;;31.00;38.28
63916;BME280;50094;51.356;-0.196;2022-07-29T02:13:43;101042.24;;;30.97;38.34
63916;BME280;50094;51.356;-0.196;2022-07-29T02:16:12;101042.23;;;30.69;38.30
63916;BME280;50094;51.356;-0.196;2022-07-29T02:18:42;101041.65;;;30.95;38.25
63916;BME280;50094;51.356;-0.196;2022-07-29T02:21:12;101044.53;;;30.73;38.02
63916;BME280;50094;51.356;-0.196;2022-07-29T02:23:42;101046.94;;;30.99;37.97
63916;BME280;50094;51.356;-0.196;2022-07-29T02:26:11;101046.26;;;31.06;37.81
63916;BME280;50094;51.356;-0.196;2022-07-29T02:28:40;101046.11;;;31.04;37.74
63916;BME280;50094;51.356;-0.196;2022-07-29T02:31:09;101046.02;;;31.01;37.77
63916;BME280;50094;51.356;-0.196;2022-07-29T02:33:39;101046.64;;;30.80;37.56
63916;BME280;50094;51.356;-0.196;2022-07-29T02:36:07;101044.99;;;31.03;37.53
63916;BME280;50094;51.356;-0.196;2022-07-29T02:38:35;101043.01;;;30.76;37.45
63916;BME280;50094;51.356;-0.196;2022-07-29T02:41:08;101039.68;;;30.58;37.16
63916;BME280;50094;51.356;-0.196;2022-07-29T02:43:36;101041.09;;;31.07;37.08
63916;BME280;50094;51.356;-0.196;2022-07-29T02:46:05;101040.45;;;31.08;37.01
63916;BME280;50094;51.356;-0.196;2022-07-29T02:48:41;101039.32;;;30.83;36.82
63916;BME280;50094;51.356;-0.196;2022-07-29T02:51:13;101038.20;;;30.64;36.81
63916;BME280;50094;51.356;-0.196;2022-07-29T02:53:49;101041.81;;;31.09;36.78
63916;BME280;50094;51.356;-0.196;2022-07-29T02:56:21;101042.86;;;31.10;36.65
63916;BME280;50094;51.356;-0.196;2022-07-29T02:58:55;101043.42;;;31.11;36.62
63916;BME280;50094;51.356;-0.196;2022-07-29T03:01:24;101043.83;;;31.14;36.59
63916;BME280;50094;51.356;-0.196;2022-07-29T03:03:53;101046.17;;;30.72;36.42
63916;BME280;50094;51.356;-0.196;2022-07-29T03:06:23;101043.82;;;30.74;36.31
63916;BME280;50094;51.356;-0.196;2022-07-29T03:08:52;101044.09;;;31.18;36.29
63916;BME280;50094;51.356;-0.196;2022-07-29T03:11:21;101043.74;;;31.20;36.17
63916;BME280;50094;51.356;-0.196;2022-07-29T03:13:50;101044.25;;;31.15;36.16
63916;BME280;50094;51.356;-0.196;2022-07-29T03:16:18;101042.49;;;31.11;36.11
63916;BME280;50094;51.356;-0.196;2022-07-29T03:18:47;101046.68;;;30.70;36.01
63916;BME280;50094;51.356;-0.196;2022-07-29T03:21:15;101052.26;;;31.20;35.99
63916;BME280;50094;51.356;-0.196;2022-07-29T03:23:43;101057.81;;;31.17;35.91
63916;BME280;50094;51.356;-0.196;2022-07-29T03:26:12;101059.98;;;31.21;35.89
63916;BME280;50094;51.356;-0.196;2022-07-29T03:28:39;101055.53;;;31.05;35.66
63916;BME280;50094;51.356;-0.196;2022-07-29T03:31:07;101056.61;;;31.25;35.74
63916;BME280;50094;51.356;-0.196;2022-07-29T03:33:35;101055.62;;;30.86;35.53
63916;BME280;50094;51.356;-0.196;2022-07-29T03:36:02;101056.78;;;30.83;35.55
63916;BME280;50094;51.356;-0.196;2022-07-29T03:38:33;101055.62;;;31.29;35.57
63916;BME280;50094;51.356;-0.196;2022-07-29T03:41:07;101052.55;;;30.81;35.52
63916;BME280;50094;51.356;-0.196;2022-07-29T03:43:38;101052.41;;;31.25;35.51
63916;BME280;50094;51.356;-0.196;2022-07-29T03:46:08;101056.65;;;31.23;35.55
63916;BME280;50094;51.356;-0.196;2022-07-29T03:48:39;101056.54;;;30.96;35.45
63916;BME280;50094;51.356;-0.196;2022-07-29T03:51:08;101057.07;;;31.29;35.30
63916;BME280;50094;51.356;-0.196;2022-07-29T03:53:36;101054.44;;;31.00;35.20
63916;BME280;50094;51.356;-0.196;2022-07-29T03:56:05;101053.27;;;30.85;35.13
63916;BME280;50094;51.356;-0.196;2022-07-29T03:58:34;101054.98;;;31.03;35.12
63916;BME280;50094;51.356;-0.196;2022-07-29T04:01:02;101055.04;;;31.12;34.98
63916;BME280;50094;51.356;-0.196;2022-07-29T04:03:30;101053.20;;;31.40;34.88
63916;BME280;50094;51.356;-0.196;2022-07-29T04:05:59;101055.10;;;31.35;34.85
63916;BME280;50094;51.356;-0.196;2022-07-29T04:08:27;101059.85;;;30.86;34.82
63916;BME280;50094;51.356;-0.196;2022-07-29T04:10:54;101063.53;;;31.11;34.67
63916;BME280;50094;51.356;-0.196;2022-07-29T04:13:22;101064.70;;;31.30;34.74
63916;BME280;50094;51.356;-0.196;2022-07-29T04:15:49;101061.76;;;31.00;34.78
63916;BME280;50094;51.356;-0.196;2022-07-29T04:18:17;101058.92;;;31.31;34.69
63916;BME280;50094;51.356;-0.196;2022-07-29T04:20:45;101053.08;;;31.30;34.63
63916;BME280;50094;51.356;-0.196;2022-07-29T04:23:12;101055.86;;;31.26;34.67
63916;BME280;50094;51.356;-0.196;2022-07-29T04:25:40;101060.47;;;30.81;34.56
63916;BME280;50094;51.356;-0.196;2022-07-29T04:28:09;101061.25;;;31.03;34.49
63916;BME280;50094;51.356;-0.196;2022-07-29T04:30:37;101061.71;;;31.35;34.46
63916;BME280;50094;51.356;-0.196;2022-07-29T04:33:06;101062.64;;;30.92;34.25
63916;BME280;50094;51.356;-0.196;2022-07-29T04:35:35;101061.56;;;31.15;34.16
63916;BME280;50094;51.356;-0.196;2022-07-29T04:38:04;101060.47;;;30.95;34.09
63916;BME280;50094;51.356;-0.196;2022-07-29T04:40:31;101061.77;;;30.93;34.13
63916;BME280;50094;51.356;-0.196;2022-07-29T04:43:00;101060.26;;;30.92;34.08
63916;BME280;50094;51.356;-0.196;2022-07-29T04:45:27;101065.20;;;30.94;34.00
63916;BME280;50094;51.356;-0.196;2022-07-29T04:47:54;101068.97;;;30.97;33.96
63916;BME280;50094;51.356;-0.196;2022-07-29T04:50:22;101068.41;;;30.94;34.03
63916;BME280;50094;51.356;-0.196;2022-07-29T04:52:49;101069.29;;;30.99;34.00
63916;BME280;50094;51.356;-0.196;2022-07-29T04:55:17;101068.53;;;31.48;33.99
63916;BME280;50094;51.356;-0.196;2022-07-29T04:57:44;101066.82;;;31.23;33.96
63916;BME280;50094;51.356;-0.196;2022-07-29T05:00:13;101067.55;;;31.50;33.93
63916;BME280;50094;51.356;-0.196;2022-07-29T05:02:40;101064.16;;;31.04;33.97
63916;BME280;50094;51.356;-0.196;2022-07-29T05:05:08;101060.62;;;31.09;33.91
63916;BME280;50094;51.356;-0.196;2022-07-29T05:07:36;101060.97;;;31.41;33.70
63916;BME280;50094;51.356;-0.196;2022-07-29T05:10:04;101060.74;;;31.40;33.59
63916;BME280;50094;51.356;-0.196;2022-07-29T05:12:32;101062.20;;;31.66;33.45
63916;BME280;50094;51.356;-0.196;2022-07-29T05:14:59;101060.49;;;31.20;33.46
63916;BME280;50094;51.356;-0.196;2022-07-29T05:17:27;101062.22;;;31.22;33.57
63916;BME280;50094;51.356;-0.196;2022-07-29T05:19:54;101063.83;;;31.44;33.64
63916;BME280;50094;51.356;-0.196;2022-07-29T05:22:22;101063.75;;;31.26;33.61
63916;BME280;50094;51.356;-0.196;2022-07-29T05:24:49;101065.49;;;31.32;33.54
63916;BME280;50094;51.356;-0.196;2022-07-29T05:27:17;101067.64;;;31.36;33.50
63916;BME280;50094;51.356;-0.196;2022-07-29T05:29:45;101062.01;;;31.47;33.44
63916;BME280;50094;51.356;-0.196;2022-07-29T05:32:13;101062.40;;;31.54;33.00
63916;BME280;50094;51.356;-0.196;2022-07-29T05:34:40;101061.27;;;31.54;33.29
63916;BME280;50094;51.356;-0.196;2022-07-29T05:37:08;101064.87;;;31.67;33.09
63916;BME280;50094;51.356;-0.196;2022-07-29T05:39:36;101066.44;;;31.72;32.93
63916;BME280;50094;51.356;-0.196;2022-07-29T05:42:08;101066.11;;;31.70;33.12
63916;BME280;50094;51.356;-0.196;2022-07-29T05:44:36;101066.44;;;31.75;32.97
63916;BME280;50094;51.356;-0.196;2022-07-29T05:47:04;101067.67;;;31.85;32.79
63916;BME280;50094;51.356;-0.196;2022-07-29T05:49:31;101070.00;;;31.85;32.81
63916;BME280;50094;51.356;-0.196;2022-07-29T05:51:59;101069.74;;;31.64;32.64
63916;BME280;50094;51.356;-0.196;2022-07-29T05:54:26;101066.40;;;31.93;32.57
63916;BME280;50094;51.356;-0.196;2022-07-29T05:56:54;101066.50;;;31.91;32.66
63916;BME280;50094;51.356;-0.196;2022-07-29T05:59:21;101071.31;;;31.68;32.58
63916;BME280;50094;51.356;-0.196;2022-07-29T06:01:49;101076.71;;;31.67;32.51
63916;BME280;50094;51.356;-0.196;2022-07-29T06:04:17;101076.23;;;31.91;32.43
63916;BME280;50094;51.356;-0.196;2022-07-29T06:06:44;101081.58;;;31.91;32.47
63916;BME280;50094;51.356;-0.196;2022-07-29T06:09:12;101083.46;;;31.93;32.54
63916;BME280;50094;51.356;-0.196;2022-07-29T06:11:40;101083.04;;;31.93;32.53
63916;BME280;50094;51.356;-0.196;2022-07-29T06:14:07;101087.21;;;31.93;32.53
63916;BME280;50094;51.356;-0.196;2022-07-29T06:16:35;101088.29;;;31.95;32.37
63916;BME280;50094;51.356;-0.196;2022-07-29T06:19:02;101092.79;;;31.88;32.23
63916;BME280;50094;51.356;-0.196;2022-07-29T06:21:30;101092.18;;;31.84;32.34
63916;BME280;50094;51.356;-0.196;2022-07-29T06:23:57;101094.18;;;32.00;32.33
63916;BME280;50094;51.356;-0.196;2022-07-29T06:26:25;101095.96;;;31.78;32.38
63916;BME280;50094;51.356;-0.196;2022-07-29T06:28:52;101096.15;;;32.04;32.22
63916;BME280;50094;51.356;-0.196;2022-07-29T06:31:20;101094.39;;;31.81;32.06
63916;BME280;50094;51.356;-0.196;2022-07-29T06:33:47;101093.67;;;32.06;31.94
63916;BME280;50094;51.356;-0.196;2022-07-29T06:36:15;101097.76;;;32.00;32.05
63916;BME280;50094;51.356;-0.196;2022-07-29T06:38:43;101098.26;;;31.83;31.95
63916;BME280;50094;51.356;-0.196;2022-07-29T06:41:10;101097.92;;;32.09;31.97
63916;BME280;50094;51.356;-0.196;2022-07-29T06:43:40;101098.44;;;31.91;31.92
63916;BME280;50094;51.356;-0.196;2022-07-29T06:46:09;101100.74;;;31.84;32.04
63916;BME280;50094;51.356;-0.196;2022-07-29T06:48:37;101101.10;;;31.84;31.89
63916;BME280;50094;51.356;-0.196;2022-07-29T06:51:06;101105.06;;;31.84;31.98
63916;BME280;50094;51.356;-0.196;2022-07-29T06:53:34;101102.07;;;32.11;32.03
63916;BME280;50094;51.356;-0.196;2022-07-29T06:56:02;101103.09;;;31.90;31.92
63916;BME280;50094;51.356;-0.196;2022-07-29T06:58:30;101103.87;;;31.68;31.86
63916;BME280;50094;51.356;-0.196;2022-07-29T07:01:00;101107.46;;;32.04;31.72
63916;BME280;50094;51.356;-0.196;2022-07-29T07:03:27;101108.96;;;32.02;31.56
63916;BME280;50094;51.356;-0.196;2022-07-29T07:05:55;101108.02;;;32.20;31.62
63916;BME280;50094;51.356;-0.196;2022-07-29T07:08:23;101111.54;;;31.97;31.68
63916;BME280;50094;51.356;-0.196;2022-07-29T07:10:51;101111.65;;;32.24;31.78
63916;BME280;50094;51.356;-0.196;2022-07-29T07:13:19;101108.94;;;32.01;31.81
63916;BME280;50094;51.356;-0.196;2022-07-29T07:15:46;101108.55;;;32.03;31.58
63916;BME280;50094;51.356;-0.196;2022-07-29T07:18:14;101110.59;;;32.07;31.63
63916;BME280;50094;51.356;-0.196;2022-07-29T07:20:43;101111.57;;;32.21;31.58
63916;BME280;50094;51.356;-0.196;2022-07-29T07:23:11;101108.15;;;32.03;31.39
63916;BME280;50094;51.356;-0.196;2022-07-29T07:25:38;101106.26;;;32.10;31.23
63916;BME280;50094;51.356;-0.196;2022-07-29T07:28:06;101103.74;;;32.37;31.31
63916;BME280;50094;51.356;-0.196;2022-07-29T07:30:34;101107.31;;;32.22;31.38
63916;BME280;50094;51.356;-0.196;2022-07-29T07:33:01;101108.38;;;32.39;31.52
63916;BME280;50094;51.356;-0.196;2022-07-29T07:35:29;101113.09;;;32.65;30.77
63916;BME280;50094;51.356;-0.196;2022-07-29T07:37:56;101116.16;;;32.05;31.07
63916;BME280;50094;51.356;-0.196;2022-07-29T07:40:24;101116.11;;;32.31;29.52
63916;BME280;50094;51.356;-0.196;2022-07-29T07:42:52;101117.79;;;31.54;30.01
63916;BME280;50094;51.356;-0.196;2022-07-29T07:45:20;101118.64;;;30.65;30.67
63916;BME280;50094;51.356;-0.196;2022-07-29T07:47:47;101122.07;;;31.00;30.85
63916;BME280;50094;51.356;-0.196;2022-07-29T07:50:15;101119.47;;;30.59;31.66
63916;BME280;50094;51.356;-0.196;2022-07-29T07:52:52;101120.38;;;30.69;31.74
63916;BME280;50094;51.356;-0.196;2022-07-29T07:55:20;101123.32;;;30.40;32.44
63916;BME280;50094;51.356;-0.196;2022-07-29T07:57:48;101131.48;;;30.14;32.90
63916;BME280;50094;51.356;-0.196;2022-07-29T08:00:16;101131.70;;;29.70;32.87
63916;BME280;50094;51.356;-0.196;2022-07-29T08:02:43;101132.77;;;29.64;32.86
63916;BME280;50094;51.356;-0.196;2022-07-29T08:05:11;101132.83;;;29.44;33.39
63916;BME280;50094;51.356;-0.196;2022-07-29T08:07:39;101132.25;;;29.32;33.55
63916;BME280;50094;51.356;-0.196;2022-07-29T08:10:07;101128.96;;;29.04;33.93
63916;BME280;50094;51.356;-0.196;2022-07-29T08:12:35;101128.27;;;28.87;34.16
63916;BME280;50094;51.356;-0.196;2022-07-29T08:15:02;101129.05;;;28.66;34.33
63916;BME280;50094;51.356;-0.196;2022-07-29T08:17:29;101132.84;;;28.56;34.47
63916;BME280;50094;51.356;-0.196;2022-07-29T08:19:56;101131.10;;;28.83;34.54
63916;BME280;50094;51.356;-0.196;2022-07-29T08:22:24;101136.11;;;28.95;34.42
63916;BME280;50094;51.356;-0.196;2022-07-29T08:24:51;101136.72;;;28.81;34.47
63916;BME280;50094;51.356;-0.196;2022-07-29T08:27:19;101137.87;;;28.73;34.57
63916;BME280;50094;51.356;-0.196;2022-07-29T08:29:48;101136.10;;;28.42;34.64
63916;BME280;50094;51.356;-0.196;2022-07-29T08:32:15;101134.50;;;28.68;34.64
63916;BME280;50094;51.356;-0.196;2022-07-29T08:34:42;101128.08;;;28.78;34.68
63916;BME280;50094;51.356;-0.196;2022-07-29T08:37:10;101132.06;;;28.64;34.67
63916;BME280;50094;51.356;-0.196;2022-07-29T08:39:37;101133.01;;;28.47;34.64
63916;BME280;50094;51.356;-0.196;2022-07-29T08:42:05;101135.53;;;28.46;34.73
63916;BME280;50094;51.356;-0.196;2022-07-29T08:44:33;101141.44;;;28.52;34.61
63916;BME280;50094;51.356;-0.196;2022-07-29T08:47:01;101134.62;;;28.67;34.45
63916;BME280;50094;51.356;-0.196;2022-07-29T08:49:28;101132.91;;;28.19;34.63
63916;BME280;50094;51.356;-0.196;2022-07-29T08:51:57;101133.35;;;28.49;34.58
63916;BME280;50094;51.356;-0.196;2022-07-29T08:54:25;101132.40;;;28.22;34.54
63916;BME280;50094;51.356;-0.196;2022-07-29T08:56:53;101131.62;;;28.54;34.53
63916;BME280;50094;51.356;-0.196;2022-07-29T08:59:22;101134.15;;;28.31;34.36
63916;BME280;50094;51.356;-0.196;2022-07-29T09:01:52;101131.78;;;28.72;34.16
63916;BME280;50094;51.356;-0.196;2022-07-29T09:04:21;101133.33;;;28.47;34.04
63916;BME280;50094;51.356;-0.196;2022-07-29T09:06:51;101134.95;;;28.66;34.08
63916;BME280;50094;51.356;-0.196;2022-07-29T09:09:19;101130.66;;;28.26;34.16
63916;BME280;50094;51.356;-0.196;2022-07-29T09:11:46;101129.62;;;28.49;34.18
63916;BME280;50094;51.356;-0.196;2022-07-29T09:14:14;101129.40;;;28.43;34.15
63916;BME280;50094;51.356;-0.196;2022-07-29T09:16:47;101129.70;;;28.41;34.17
63916;BME280;50094;51.356;-0.196;2022-07-29T09:19:21;101133.24;;;28.12;34.16
63916;BME280;50094;51.356;-0.196;2022-07-29T09:21:49;101125.17;;;28.45;34.10
63916;BME280;50094;51.356;-0.196;2022-07-29T09:24:16;101122.16;;;28.22;33.92
63916;BME280;50094;51.356;-0.196;2022-07-29T09:26:45;101118.23;;;28.44;33.90
63916;BME280;50094;51.356;-0.196;2022-07-29T09:29:14;101116.28;;;28.18;33.87
63916;BME280;50094;51.356;-0.196;2022-07-29T09:31:45;101119.36;;;28.14;34.01
63916;BME280;50094;51.356;-0.196;2022-07-29T09:34:14;101122.53;;;28.76;33.86
63916;BME280;50094;51.356;-0.196;2022-07-29T09:36:44;101125.53;;;28.37;33.64
63916;BME280;50094;51.356;-0.196;2022-07-29T09:39:12;101122.17;;;28.62;33.24
63916;BME280;50094;51.356;-0.196;2022-07-29T09:41:49;101126.16;;;28.60;33.24
63916;BME280;50094;51.356;-0.196;2022-07-29T09:44:17;101129.50;;;28.53;33.17
63916;BME280;50094;51.356;-0.196;2022-07-29T09:46:54;101128.10;;;28.59;33.24
63916;BME280;50094;51.356;-0.196;2022-07-29T09:49:22;101128.03;;;28.75;32.89
63916;BME280;50094;51.356;-0.196;2022-07-29T09:51:59;101131.12;;;28.57;33.05
63916;BME280;50094;51.356;-0.196;2022-07-29T09:54:27;101130.40;;;28.60;33.03
63916;BME280;50094;51.356;-0.196;2022-07-29T09:56:55;101131.83;;;28.81;32.46
63916;BME280;50094;51.356;-0.196;2022-07-29T09:59:22;101126.88;;;28.52;32.39
63916;BME280;50094;51.356;-0.196;2022-07-29T10:01:50;101123.86;;;28.48;32.45
63916;BME280;50094;51.356;-0.196;2022-07-29T10:04:18;101126.44;;;28.45;32.64
63916;BME280;50094;51.356;-0.196;2022-07-29T10:07:02;101125.92;;;28.77;31.53
63916;BME280;50094;51.356;-0.196;2022-07-29T10:09:30;101126.88;;;28.53;32.12
63916;BME280;50094;51.356;-0.196;2022-07-29T10:12:07;101128.83;;;28.36;32.12
63916;BME280;50094;51.356;-0.196;2022-07-29T10:14:36;101125.24;;;28.43;32.16
63916;BME280;50094;51.356;-0.196;2022-07-29T10:17:05;101120.92;;;28.05;32.18
63916;BME280;50094;51.356;-0.196;2022-07-29T10:19:34;101113.49;;;28.11;32.52
63916;BME280;50094;51.356;-0.196;2022-07-29T10:22:06;101110.50;;;27.89;32.37
63916;BME280;50094;51.356;-0.196;2022-07-29T10:24:34;101106.82;;;28.24;32.41
63916;BME280;50094;51.356;-0.196;2022-07-29T10:27:03;101116.31;;;27.75;32.40
63916;BME280;50094;51.356;-0.196;2022-07-29T10:29:31;101114.49;;;27.98;32.41
63916;BME280;50094;51.356;-0.196;2022-07-29T10:32:27;101113.14;;;28.09;32.47
63916;BME280;50094;51.356;-0.196;2022-07-29T10:35:18;101108.54;;;28.34;32.40
63916;BME280;50094;51.356;-0.196;2022-07-29T10:38:00;101115.64;;;28.01;32.55
63916;BME280;50094;51.356;-0.196;2022-07-29T10:40:39;101111.47;;;28.06;32.50
63916;BME280;50094;51.356;-0.196;2022-07-29T10:43:19;101116.42;;;28.27;32.57
63916;BME280;50094;51.356;-0.196;2022-07-29T10:45:48;101119.11;;;27.87;32.47
63916;BME280;50094;51.356;-0.196;2022-07-29T10:48:16;101114.93;;;28.41;32.39
63916;BME280;50094;51.356;-0.196;2022-07-29T10:51:01;101114.33;;;27.79;32.49
63916;BME280;50094;51.356;-0.196;2022-07-29T10:53:47;101115.79;;;28.07;32.49
63916;BME280;50094;51.356;-0.196;2022-07-29T10:56:32;101111.14;;;28.15;32.48
63916;BME280;50094;51.356;-0.196;2022-07-29T10:59:32;101111.03;;;27.90;32.34
63916;BME280;50094;51.356;-0.196;2022-07-29T11:02:00;101117.76;;;28.15;32.42
63916;BME280;50094;51.356;-0.196;2022-07-29T11:05:00;101116.92;;;27.87;32.39
63916;BME280;50094;51.356;-0.196;2022-07-29T11:07:28;101116.01;;;27.79;32.45
63916;BME280;50094;51.356;-0.196;2022-07-29T11:10:28;101114.34;;;27.78;32.46
63916;BME280;50094;51.356;-0.196;2022-07-29T11:12:56;101117.72;;;27.85;32.38
63916;BME280;50094;51.356;-0.196;2022-07-29T11:15:24;101115.33;;;28.08;32.41
63916;BME280;50094;51.356;-0.196;2022-07-29T11:18:08;101114.58;;;27.79;32.43
63916;BME280;50094;51.356;-0.196;2022-07-29T11:20:37;101111.93;;;28.13;32.27
63916;BME280;50094;51.356;-0.196;2022-07-29T11:23:24;101112.30;;;27.76;32.36
63916;BME280;50094;51.356;-0.196;2022-07-29T11:26:23;101114.73;;;28.09;32.26
63916;BME280;50094;51.356;-0.196;2022-07-29T11:28:54;101121.63;;;28.24;32.31
63916;BME280;50094;51.356;-0.196;2022-07-29T11:31:36;101121.85;;;28.21;32.29
63916;BME280;50094;51.356;-0.196;2022-07-29T11:34:22;101122.19;;;27.96;32.15
63916;BME280;50094;51.356;-0.196;2022-07-29T11:37:23;101120.63;;;27.72;32.03
63916;BME280;50094;51.356;-0.196;2022-07-29T11:40:23;101115.61;;;27.95;32.11
63916;BME280;50094;51.356;-0.196;2022-07-29T11:42:50;101119.14;;;28.13;32.12
63916;BME280;50094;51.356;-0.196;2022-07-29T11:45:25;101121.18;;;27.68;32.18
63916;BME280;50094;51.356;-0.196;2022-07-29T11:47:55;101120.83;;;27.70;32.13
63916;BME280;50094;51.356;-0.196;2022-07-29T11:50:33;101121.01;;;27.76;32.06
63916;BME280;50094;51.356;-0.196;2022-07-29T11:53:03;101119.19;;;27.65;32.14
63916;BME280;50094;51.356;-0.196;2022-07-29T11:55:38;101114.68;;;28.02;32.08
63916;BME280;50094;51.356;-0.196;2022-07-29T11:58:06;101109.46;;;27.84;31.97
63916;BME280;50094;51.356;-0.196;2022-07-29T12:00:34;101108.61;;;27.91;31.91
63916;BME280;50094;51.356;-0.196;2022-07-29T12:03:05;101104.93;;;27.83;31.91
63916;BME280;50094;51.356;-0.196;2022-07-29T12:05:36;101111.23;;;28.10;31.94
63916;BME280;50094;51.356;-0.196;2022-07-29T12:08:08;101114.42;;;27.78;31.98
63916;BME280;50094;51.356;-0.196;2022-07-29T12:10:36;101115.55;;;28.01;31.97
63916;BME280;50094;51.356;-0.196;2022-07-29T12:13:04;101110.77;;;27.79;31.94
63916;BME280;50094;51.356;-0.196;2022-07-29T12:15:31;101110.32;;;28.07;31.90
63916;BME280;50094;51.356;-0.196;2022-07-29T12:18:09;101105.68;;;27.82;31.85
63916;BME280;50094;51.356;-0.196;2022-07-29T12:20:42;101107.31;;;27.84;31.79
63916;BME280;50094;51.356;-0.196;2022-07-29T12:23:09;101105.33;;;27.83;31.77
63916;BME280;50094;51.356;-0.196;2022-07-29T12:25:37;101105.71;;;27.82;31.77
63916;BME280;50094;51.356;-0.196;2022-07-29T12:28:06;101102.41;;;27.82;31.75
63916;BME280;50094;51.356;-0.196;2022-07-29T12:30:40;101096.17;;;28.03;31.76
63916;BME280;50094;51.356;-0.196;2022-07-29T12:33:12;101094.38;;;28.01;31.75
63916;BME280;50094;51.356;-0.196;2022-07-29T12:35:42;101091.03;;;28.01;31.67
63916;BME280;50094;51.356;-0.196;2022-07-29T12:38:10;101092.27;;;27.77;31.61
63916;BME280;50094;51.356;-0.196;2022-07-29T12:40:38;101091.83;;;28.08;31.50
63916;BME280;50094;51.356;-0.196;2022-07-29T12:43:07;101095.51;;;28.02;31.53
63916;BME280;50094;51.356;-0.196;2022-07-29T12:45:35;101088.31;;;27.69;31.52
63916;BME280;50094;51.356;-0.196;2022-07-29T12:48:03;101090.21;;;27.67;31.50
63916;BME280;50094;51.356;-0.196;2022-07-29T12:50:31;101091.09;;;27.82;31.45
63916;BME280;50094;51.356;-0.196;2022-07-29T12:53:14;101089.02;;;28.09;31.44
63916;BME280;50094;51.356;-0.196;2022-07-29T12:55:43;101087.73;;;28.11;31.39